Time;durP1;ratioP1;P1;durP2;ratioP2;P2;SDS_P1;SDS_P2;PMS_P1;PMS_P2;Temp;Humidity;BMP_temperature;BMP_pressure;BME280_temperature;BME280_humidity;BME280_pressure;Samples;Min_cycle;Max_cycle;Signal;HPM_P1;HPM_P2
2024/04/01 00:00:37;;;;;;;14.90;8.97;;;8.50;99.90;;;;;;5080063;28;20198;-60
2024/04/01 00:03:05;;;;;;;12.73;9.43;;;8.50;99.90;;;;;;5085202;28;20198;-59
2024/04/01 00:05:32;;;;;;;11.77;9.03;;;8.60;99.90;;;;;;5082886;28;20595;-61
2024/04/01 00:07:57;;;;;;;10.40;9.30;;;8.50;99.90;;;;;;5069961;28;23645;-57
2024/04/01 00:10:25;;;;;;;12.17;9.03;;;8.40;99.90;;;;;;5075896;28;20197;-60
2024/04/01 00:12:50;;;;;;;13.10;9.00;;;8.40;99.90;;;;;;5073568;28;20243;-59
2024/04/01 00:15:18;;;;;;;12.17;9.43;;;8.40;99.90;;;;;;5058888;28;20197;-58
2024/04/01 00:17:44;;;;;;;11.37;8.90;;;8.40;99.90;;;;;;5084510;28;20214;-58
2024/04/01 00:20:12;;;;;;;11.70;9.00;;;8.40;99.90;;;;;;5087230;28;20197;-58
2024/04/01 00:22:39;;;;;;;12.53;9.57;;;8.40;99.90;;;;;;5074179;28;20201;-58
2024/04/01 00:25:06;;;;;;;11.03;8.87;;;8.30;99.90;;;;;;5087751;28;20578;-57
2024/04/01 00:27:34;;;;;;;9.13;8.23;;;8.30;99.90;;;;;;5067876;28;20305;-60
2024/04/01 00:30:01;;;;;;;13.17;9.70;;;8.30;99.90;;;;;;5053303;28;20218;-59
2024/04/01 00:32:27;;;;;;;12.83;9.43;;;8.30;99.90;;;;;;5085756;28;20217;-60
2024/04/01 00:34:54;;;;;;;11.53;8.80;;;8.30;99.90;;;;;;5088223;28;20205;-60
2024/04/01 00:37:21;;;;;;;12.10;9.00;;;8.30;99.90;;;;;;5086582;28;20777;-59
2024/04/01 00:39:48;;;;;;;11.07;8.90;;;8.20;99.90;;;;;;5075856;28;20190;-58
2024/04/01 00:42:15;;;;;;;11.20;8.37;;;8.20;99.90;;;;;;5077774;28;20200;-58
2024/04/01 00:44:42;;;;;;;10.03;8.40;;;8.10;99.90;;;;;;5042024;28;20197;-57
2024/04/01 00:47:13;;;;;;;11.70;8.70;;;8.20;99.90;;;;;;5086205;28;20218;-59
2024/04/01 00:49:40;;;;;;;12.67;9.47;;;8.10;99.90;;;;;;5083809;28;20739;-60
2024/04/01 00:52:06;;;;;;;10.87;8.63;;;8.00;99.90;;;;;;5086891;28;20663;-59
2024/04/01 00:54:35;;;;;;;12.07;9.37;;;8.00;99.90;;;;;;5071428;28;20198;-61
2024/04/01 00:57:01;;;;;;;10.83;8.80;;;8.00;99.90;;;;;;5056478;28;20230;-59
2024/04/01 00:59:29;;;;;;;10.23;8.67;;;8.00;99.90;;;;;;5079769;28;20192;-60
2024/04/01 01:01:55;;;;;;;13.57;9.93;;;7.90;99.90;;;;;;5046386;28;20185;-58
2024/04/01 01:04:22;;;;;;;13.17;9.47;;;7.90;99.90;;;;;;5082275;28;20221;-58
2024/04/01 01:06:48;;;;;;;11.57;9.03;;;7.90;99.90;;;;;;5071904;28;20226;-55
2024/04/01 01:09:15;;;;;;;13.80;9.83;;;7.90;99.90;;;;;;5077098;28;20565;-53
2024/04/01 01:11:42;;;;;;;14.77;10.87;;;7.80;99.90;;;;;;5071939;28;20198;-58
2024/04/01 01:14:09;;;;;;;12.20;9.37;;;7.80;99.90;;;;;;5084245;28;20259;-58
2024/04/01 01:16:36;;;;;;;13.13;9.80;;;7.80;99.90;;;;;;5047218;28;20267;-61
2024/04/01 01:19:04;;;;;;;13.57;10.20;;;7.80;99.90;;;;;;5066521;28;20193;-58
2024/04/01 01:21:29;;;;;;;12.70;10.23;;;7.80;99.90;;;;;;5083470;28;20181;-59
2024/04/01 01:23:58;;;;;;;9.87;8.73;;;7.80;99.90;;;;;;5069516;28;21844;-57
2024/04/01 01:26:23;;;;;;;10.07;8.13;;;7.80;99.90;;;;;;5084214;28;20214;-60
2024/04/01 01:28:51;;;;;;;13.37;9.33;;;7.70;99.90;;;;;;5074774;28;20198;-57
2024/04/01 01:31:18;;;;;;;13.93;9.67;;;7.60;99.90;;;;;;5087282;28;20256;-57
2024/04/01 01:33:45;;;;;;;14.37;10.23;;;7.60;99.90;;;;;;5042555;28;20524;-58
2024/04/01 01:36:11;;;;;;;12.40;9.60;;;7.60;99.90;;;;;;5087842;28;20732;-58
2024/04/01 01:38:38;;;;;;;15.57;9.70;;;7.60;99.90;;;;;;5083644;28;20194;-60
2024/04/01 01:41:06;;;;;;;13.27;9.87;;;7.60;99.90;;;;;;5072527;28;20198;-57
2024/04/01 01:43:33;;;;;;;13.13;9.90;;;7.60;99.90;;;;;;5074847;28;20547;-60
2024/04/01 01:45:59;;;;;;;11.20;9.53;;;7.50;99.90;;;;;;5084146;28;20270;-55
2024/04/01 01:48:25;;;;;;;12.57;9.57;;;7.50;99.90;;;;;;5055930;28;20206;-61
2024/04/01 01:50:51;;;;;;;12.83;9.63;;;7.50;99.90;;;;;;5084232;28;20925;-60
2024/04/01 01:53:18;;;;;;;17.10;10.93;;;7.50;99.90;;;;;;5085380;28;20243;-59
2024/04/01 01:55:44;;;;;;;18.17;11.07;;;7.50;99.90;;;;;;5073287;28;21255;-59
2024/04/01 01:58:12;;;;;;;13.37;10.50;;;7.50;99.90;;;;;;5076012;28;20183;-57
2024/04/01 02:00:38;;;;;;;16.47;11.00;;;7.40;99.90;;;;;;5082393;28;20255;-59
2024/04/01 02:03:06;;;;;;;14.90;11.03;;;7.40;99.90;;;;;;5083314;28;20278;-57
2024/04/01 02:05:32;;;;;;;14.40;11.00;;;7.40;99.90;;;;;;5050986;28;20271;-61
2024/04/01 02:07:59;;;;;;;16.10;11.13;;;7.50;99.90;;;;;;5081483;28;20245;-59
2024/04/01 02:10:25;;;;;;;17.00;11.50;;;7.50;99.90;;;;;;5067158;28;20197;-60
2024/04/01 02:12:52;;;;;;;14.80;10.13;;;7.40;99.90;;;;;;5076933;28;20276;-56
2024/04/01 02:15:22;;;;;;;15.07;10.67;;;7.40;99.90;;;;;;5076917;28;20278;-59
2024/04/01 02:17:49;;;;;;;14.17;10.60;;;7.40;99.90;;;;;;5083030;28;21070;-58
2024/04/01 02:20:15;;;;;;;11.63;10.23;;;7.40;99.90;;;;;;5052007;28;20214;-59
2024/04/01 02:22:44;;;;;;;15.53;11.50;;;7.40;99.90;;;;;;5078405;28;20197;-59
2024/04/01 02:25:11;;;;;;;14.10;11.10;;;7.30;99.90;;;;;;5082997;28;20198;-57
2024/04/01 02:27:39;;;;;;;21.13;12.77;;;7.30;99.90;;;;;;5070151;28;20712;-62
2024/04/01 02:30:06;;;;;;;16.10;12.33;;;7.40;99.90;;;;;;5075026;28;20201;-59
2024/04/01 02:32:34;;;;;;;15.80;12.03;;;7.40;99.90;;;;;;5085726;28;20261;-60
2024/04/01 02:35:01;;;;;;;18.50;13.30;;;7.40;99.90;;;;;;5055896;28;20710;-55
2024/04/01 02:37:26;;;;;;;21.03;13.73;;;7.40;99.90;;;;;;5082384;28;20209;-60
2024/04/01 02:39:53;;;;;;;18.43;12.60;;;7.40;99.90;;;;;;5083617;28;20990;-57
2024/04/01 02:42:19;;;;;;;18.67;12.70;;;7.40;99.90;;;;;;5083136;28;20198;-59
2024/04/01 02:44:46;;;;;;;20.57;13.87;;;7.40;99.90;;;;;;5062882;28;21108;-59
2024/04/01 02:47:12;;;;;;;17.30;12.27;;;7.40;99.90;;;;;;5083832;28;20213;-56
2024/04/01 02:49:40;;;;;;;20.43;13.43;;;7.40;99.90;;;;;;5081966;28;20201;-57
2024/04/01 02:52:06;;;;;;;17.00;13.33;;;7.40;99.90;;;;;;5056851;28;20556;-58
2024/04/01 02:54:33;;;;;;;18.67;13.13;;;7.30;99.90;;;;;;5086938;28;20198;-60
2024/04/01 02:56:58;;;;;;;25.57;14.03;;;7.30;99.90;;;;;;5086374;28;20223;-58
2024/04/01 02:59:25;;;;;;;17.80;14.00;;;7.30;99.90;;;;;;5072824;28;20668;-61
2024/04/01 03:01:51;;;;;;;22.30;14.50;;;7.40;99.90;;;;;;5076281;28;20957;-60
2024/04/01 03:04:18;;;;;;;23.07;14.57;;;7.40;99.90;;;;;;5085175;28;20194;-55
2024/04/01 03:06:45;;;;;;;21.13;14.27;;;7.40;99.90;;;;;;5033255;28;20933;-60
2024/04/01 03:09:13;;;;;;;18.80;13.87;;;7.40;99.90;;;;;;5083883;28;20186;-56
2024/04/01 03:11:39;;;;;;;20.97;13.70;;;7.40;99.90;;;;;;5085593;28;20202;-57
2024/04/01 03:14:07;;;;;;;18.27;14.47;;;7.40;99.90;;;;;;5086152;28;20239;-55
2024/04/01 03:16:33;;;;;;;18.27;13.33;;;7.30;99.90;;;;;;5068856;28;21119;-60
2024/04/01 03:19:00;;;;;;;19.20;13.77;;;7.30;99.90;;;;;;5071672;28;20198;-61
2024/04/01 03:21:26;;;;;;;27.03;15.37;;;7.30;99.90;;;;;;5055683;28;20267;-59
2024/04/01 03:23:56;;;;;;;20.67;13.90;;;7.20;99.90;;;;;;5084265;28;20190;-61
2024/04/01 03:26:22;;;;;;;20.77;14.77;;;7.30;99.90;;;;;;5083689;28;20267;-60
2024/04/01 03:28:49;;;;;;;21.13;14.83;;;7.20;99.90;;;;;;5083042;28;20217;-61
2024/04/01 03:31:15;;;;;;;20.20;14.40;;;7.20;99.90;;;;;;5062229;28;20679;-60
2024/04/01 03:33:44;;;;;;;19.70;13.83;;;7.20;99.90;;;;;;5081081;28;20186;-57
2024/04/01 03:36:10;;;;;;;24.07;15.27;;;7.20;99.90;;;;;;5081315;28;20259;-59
2024/04/01 03:38:37;;;;;;;21.63;15.03;;;7.20;99.90;;;;;;5051582;28;20821;-60
2024/04/01 03:41:04;;;;;;;22.10;15.20;;;7.20;99.90;;;;;;5085204;28;20554;-57
2024/04/01 03:43:32;;;;;;;23.00;13.50;;;7.20;99.90;;;;;;5082775;28;20555;-60
2024/04/01 03:45:58;;;;;;;15.83;12.77;;;7.10;99.90;;;;;;5076662;28;20228;-60
2024/04/01 03:48:25;;;;;;;22.27;14.43;;;7.10;99.90;;;;;;5086177;28;20228;-59
2024/04/01 03:50:51;;;;;;;20.40;14.40;;;7.10;99.90;;;;;;5082775;28;20211;-58
2024/04/01 03:53:18;;;;;;;23.33;13.80;;;7.10;99.90;;;;;;5056516;28;20213;-61
2024/04/01 03:55:45;;;;;;;19.70;14.40;;;7.10;99.90;;;;;;5085491;28;20213;-57
2024/04/01 03:58:13;;;;;;;19.13;13.50;;;7.10;99.90;;;;;;5088001;28;20201;-58
2024/04/01 04:00:40;;;;;;;21.60;14.60;;;7.10;99.90;;;;;;5074354;28;20267;-60
2024/04/01 04:03:07;;;;;;;20.40;12.80;;;7.00;99.90;;;;;;5075409;28;20209;-58
2024/04/01 04:05:35;;;;;;;20.63;14.57;;;7.00;99.90;;;;;;5082265;28;20218;-60
2024/04/01 04:08:01;;;;;;;22.40;14.47;;;7.00;99.90;;;;;;5048964;28;20236;-59
2024/04/01 04:10:28;;;;;;;20.37;14.03;;;7.00;99.90;;;;;;5083456;28;20194;-60
2024/04/01 04:12:54;;;;;;;24.77;15.47;;;7.00;99.90;;;;;;5089793;28;20189;-59
2024/04/01 04:15:23;;;;;;;25.13;15.33;;;7.00;99.90;;;;;;5090694;28;20221;-59
2024/04/01 04:17:49;;;;;;;19.47;14.77;;;7.10;99.90;;;;;;5076539;28;20210;-58
2024/04/01 04:20:16;;;;;;;21.37;14.90;;;7.10;99.90;;;;;;5090327;28;20826;-60
2024/04/01 04:22:44;;;;;;;19.20;13.97;;;7.10;99.90;;;;;;5077999;28;20198;-59
2024/04/01 04:25:12;;;;;;;22.80;15.17;;;7.00;99.90;;;;;;5059970;28;20197;-59
2024/04/01 04:27:38;;;;;;;20.63;14.40;;;7.00;99.90;;;;;;5085068;28;21063;-60
2024/04/01 04:30:08;;;;;;;20.90;14.93;;;7.00;99.90;;;;;;5090778;28;20272;-59
2024/04/01 04:32:39;;;;;;;18.27;14.27;;;7.00;99.90;;;;;;5079240;28;20190;-59
2024/04/01 04:35:08;;;;;;;22.90;14.90;;;7.00;99.90;;;;;;5091557;28;20667;-60
2024/04/01 04:37:35;;;;;;;22.17;14.60;;;6.90;99.90;;;;;;5079053;28;21065;-61
2024/04/01 04:40:03;;;;;;;20.70;16.03;;;6.90;99.90;;;;;;5061602;28;20673;-61
2024/04/01 04:42:28;;;;;;;18.37;13.90;;;6.90;99.90;;;;;;5084437;28;20194;-59
2024/04/01 04:44:55;;;;;;;19.60;14.10;;;6.80;99.90;;;;;;5088759;28;20204;-59
2024/04/01 04:47:21;;;;;;;19.00;14.10;;;6.80;99.90;;;;;;5080590;28;20218;-60
2024/04/01 04:49:50;;;;;;;20.30;14.50;;;6.80;99.90;;;;;;5077512;28;20208;-59
2024/04/01 04:52:15;;;;;;;21.43;14.93;;;6.80;99.90;;;;;;5084329;28;20190;-60
2024/04/01 04:54:42;;;;;;;22.90;15.87;;;6.80;99.90;;;;;;5046695;28;20233;-61
2024/04/01 04:57:08;;;;;;;21.43;15.00;;;6.80;99.90;;;;;;5084108;28;20212;-61
2024/04/01 04:59:35;;;;;;;22.57;15.33;;;6.80;99.90;;;;;;5081892;28;20830;-58
2024/04/01 05:02:06;;;;;;;24.53;15.37;;;6.80;99.90;;;;;;5085707;28;20550;-60
2024/04/01 05:04:33;;;;;;;25.10;14.93;;;6.80;99.90;;;;;;5072240;28;20308;-60
2024/04/01 05:07:01;;;;;;;18.13;14.77;;;6.80;99.90;;;;;;5085332;28;20225;-59
2024/04/01 05:09:28;;;;;;;21.43;15.73;;;6.70;99.90;;;;;;5052229;28;20264;-61
2024/04/01 05:11:54;;;;;;;19.07;15.43;;;6.70;99.90;;;;;;5085833;28;20255;-57
2024/04/01 05:14:21;;;;;;;23.17;15.00;;;6.70;99.90;;;;;;5088478;28;20198;-61
2024/04/01 05:16:47;;;;;;;23.40;16.00;;;6.80;99.90;;;;;;5076336;28;21037;-60
2024/04/01 05:19:14;;;;;;;25.60;16.40;;;6.80;99.90;;;;;;5073183;28;20280;-60
2024/04/01 05:21:40;;;;;;;25.33;16.43;;;6.80;99.90;;;;;;5083893;28;20280;-58
2024/04/01 05:24:08;;;;;;;20.97;15.90;;;6.70;99.90;;;;;;5052779;28;20198;-61
2024/04/01 05:26:34;;;;;;;22.87;15.13;;;6.80;99.90;;;;;;5080428;28;20299;-59
2024/04/01 05:29:01;;;;;;;21.97;15.57;;;6.80;99.90;;;;;;5083411;28;20739;-60
2024/04/01 05:31:27;;;;;;;30.07;17.07;;;6.80;99.90;;;;;;5086145;28;20322;-60
2024/04/01 05:33:56;;;;;;;26.00;16.63;;;6.80;99.90;;;;;;5078010;28;20671;-58
2024/04/01 05:36:23;;;;;;;22.50;16.10;;;6.80;99.90;;;;;;5084417;28;21019;-60
2024/04/01 05:38:50;;;;;;;30.13;18.37;;;6.80;99.90;;;;;;5081740;28;20860;-60
2024/04/01 05:41:17;;;;;;;28.33;17.50;;;6.90;99.90;;;;;;5050743;28;20205;-61
2024/04/01 05:43:44;;;;;;;26.17;17.63;;;6.90;99.90;;;;;;5084803;28;20280;-57
2024/04/01 05:46:10;;;;;;;27.57;18.33;;;6.90;99.90;;;;;;5079849;28;20218;-59
2024/04/01 05:48:37;;;;;;;27.43;17.23;;;6.90;99.90;;;;;;5087903;28;20217;-60
2024/04/01 05:51:03;;;;;;;24.90;18.57;;;7.00;99.90;;;;;;5070774;28;20270;-60
2024/04/01 05:53:30;;;;;;;26.87;18.47;;;7.00;99.90;;;;;;5075556;28;20229;-57
2024/04/01 05:55:56;;;;;;;26.83;18.50;;;7.10;99.90;;;;;;5048631;28;20857;-61
2024/04/01 05:58:24;;;;;;;24.90;18.87;;;7.10;99.90;;;;;;5083626;28;20192;-59
2024/04/01 06:00:50;;;;;;;29.23;17.90;;;7.10;99.90;;;;;;5082384;28;20201;-60
2024/04/01 06:03:18;;;;;;;29.30;18.27;;;7.10;99.90;;;;;;5072691;28;20193;-59
2024/04/01 06:05:44;;;;;;;30.60;18.80;;;7.20;99.90;;;;;;5048690;28;20209;-58
2024/04/01 06:08:11;;;;;;;27.43;18.53;;;7.20;99.90;;;;;;5080478;28;20748;-60
2024/04/01 06:10:37;;;;;;;27.53;18.20;;;7.20;99.90;;;;;;5044157;28;21254;-57
2024/04/01 06:13:04;;;;;;;28.33;18.30;;;7.20;99.90;;;;;;5071415;28;20194;-59
2024/04/01 06:15:32;;;;;;;29.43;19.13;;;7.30;99.90;;;;;;5077079;28;20197;-57
2024/04/01 06:17:58;;;;;;;28.77;19.43;;;7.30;99.90;;;;;;5083928;28;20321;-58
2024/04/01 06:20:24;;;;;;;33.70;20.90;;;7.30;99.90;;;;;;5071359;28;20246;-60
2024/04/01 06:22:51;;;;;;;32.83;20.23;;;7.40;99.90;;;;;;5082954;28;20193;-58
2024/04/01 06:25:18;;;;;;;28.60;19.37;;;7.40;99.90;;;;;;5054134;28;20198;-60
2024/04/01 06:27:44;;;;;;;28.57;19.13;;;7.40;99.90;;;;;;5064960;28;20218;-58
2024/04/01 06:30:11;;;;;;;30.23;19.50;;;7.40;99.90;;;;;;5081241;28;20194;-61
2024/04/01 06:32:41;;;;;;;26.50;19.13;;;7.50;99.90;;;;;;5085800;28;20218;-57
2024/04/01 06:35:07;;;;;;;30.80;20.23;;;7.50;99.90;;;;;;5069567;28;20197;-61
2024/04/01 06:37:35;;;;;;;33.97;20.40;;;7.50;99.90;;;;;;5070075;28;20236;-58
2024/04/01 06:40:01;;;;;;;29.73;21.07;;;7.50;99.90;;;;;;5079346;28;20197;-61
2024/04/01 06:42:29;;;;;;;32.53;21.33;;;7.60;99.90;;;;;;5045316;28;20193;-60
2024/04/01 06:44:55;;;;;;;28.53;21.33;;;7.60;99.90;;;;;;5070516;28;20281;-60
2024/04/01 06:47:22;;;;;;;29.93;21.43;;;7.60;99.90;;;;;;5076935;28;20398;-57
2024/04/01 06:49:49;;;;;;;29.67;22.43;;;7.60;99.90;;;;;;5081426;28;20296;-58
2024/04/01 06:52:16;;;;;;;34.90;22.00;;;7.70;99.90;;;;;;5071879;28;20197;-56
2024/04/01 06:54:44;;;;;;;28.60;19.73;;;7.70;99.90;;;;;;5080269;28;20244;-59
2024/04/01 06:57:11;;;;;;;30.93;22.47;;;7.70;99.90;;;;;;5034678;28;20743;-60
2024/04/01 06:59:37;;;;;;;32.57;20.90;;;7.70;99.90;;;;;;5075765;28;20277;-58
2024/04/01 07:02:04;;;;;;;37.10;21.60;;;7.80;99.90;;;;;;5082415;28;20202;-60
2024/04/01 07:04:30;;;;;;;34.27;21.70;;;7.80;99.90;;;;;;5069322;28;20202;-60
2024/04/01 07:06:58;;;;;;;30.63;21.53;;;7.80;99.90;;;;;;5068736;28;20290;-57
2024/04/01 07:09:24;;;;;;;30.27;21.50;;;7.90;99.90;;;;;;5065892;28;20868;-61
2024/04/01 07:11:50;;;;;;;33.83;21.77;;;7.90;99.90;;;;;;5073246;28;20265;-57
2024/04/01 07:14:16;;;;;;;32.67;22.03;;;7.90;99.90;;;;;;5053377;28;20202;-59
2024/04/01 07:16:43;;;;;;;33.40;21.80;;;8.00;99.90;;;;;;5072777;28;20718;-59
2024/04/01 07:19:09;;;;;;;32.77;23.10;;;8.00;99.90;;;;;;5083468;28;20656;-57
2024/04/01 07:21:36;;;;;;;32.13;21.23;;;8.00;99.90;;;;;;5071140;28;20247;-56
2024/04/01 07:24:03;;;;;;;31.37;22.80;;;8.00;99.90;;;;;;5076814;28;20198;-58
2024/04/01 07:26:30;;;;;;;34.87;24.13;;;8.10;99.90;;;;;;5079716;28;20236;-60
2024/04/01 07:28:56;;;;;;;33.93;22.37;;;8.10;99.90;;;;;;5046228;28;20218;-55
2024/04/01 07:31:24;;;;;;;34.43;22.87;;;8.10;99.90;;;;;;5076274;28;20262;-59
2024/04/01 07:33:49;;;;;;;27.37;21.83;;;8.20;99.90;;;;;;5086314;28;20175;-56
2024/04/01 07:36:16;;;;;;;35.10;22.83;;;8.20;99.90;;;;;;5072590;28;20540;-60
2024/04/01 07:38:42;;;;;;;33.27;23.90;;;8.20;99.90;;;;;;5068692;28;20380;-56
2024/04/01 07:41:10;;;;;;;30.03;23.77;;;8.20;99.90;;;;;;5085732;28;20656;-57
2024/04/01 07:43:37;;;;;;;30.70;23.60;;;8.20;99.90;;;;;;5052413;28;26549;-57
2024/04/01 07:46:04;;;;;;;29.43;21.60;;;8.20;99.90;;;;;;5077892;28;20190;-58
2024/04/01 07:48:30;;;;;;;31.20;23.87;;;8.30;99.90;;;;;;5083752;28;20245;-60
2024/04/01 07:51:02;;;;;;;36.07;23.40;;;8.30;99.90;;;;;;5091825;28;20262;-57
2024/04/01 07:53:28;;;;;;;37.73;23.70;;;8.30;99.90;;;;;;5067689;28;20671;-59
2024/04/01 07:55:54;;;;;;;30.43;23.43;;;8.30;99.90;;;;;;5074070;28;20208;-57
2024/04/01 07:58:22;;;;;;;32.77;23.77;;;8.40;99.90;;;;;;5075188;28;20193;-59
2024/04/01 08:00:49;;;;;;;40.47;24.10;;;8.30;99.90;;;;;;5063463;28;20948;-57
2024/04/01 08:03:15;;;;;;;33.87;24.10;;;8.40;99.90;;;;;;5087951;28;20200;-59
2024/04/01 08:05:42;;;;;;;35.40;25.00;;;8.40;99.90;;;;;;5078441;28;20189;-57
2024/04/01 08:08:09;;;;;;;31.30;24.03;;;8.40;99.90;;;;;;5070737;28;20621;-56
2024/04/01 08:10:36;;;;;;;36.10;24.43;;;8.40;99.90;;;;;;5075446;28;20269;-57
2024/04/01 08:13:02;;;;;;;37.37;24.43;;;8.40;99.90;;;;;;5088690;28;20582;-56
2024/04/01 08:15:30;;;;;;;36.33;24.60;;;8.40;99.90;;;;;;5045521;28;20247;-61
2024/04/01 08:17:55;;;;;;;34.83;25.00;;;8.50;99.90;;;;;;5087479;28;20217;-58
2024/04/01 08:20:22;;;;;;;40.73;26.53;;;8.50;99.90;;;;;;5083170;28;20178;-57
2024/04/01 08:22:50;;;;;;;37.20;24.90;;;8.50;99.90;;;;;;5073783;28;20259;-60
2024/04/01 08:25:17;;;;;;;42.10;25.70;;;8.60;99.90;;;;;;5077622;28;20194;-57
2024/04/01 08:27:43;;;;;;;39.07;26.37;;;8.60;99.90;;;;;;5085966;28;20222;-57
2024/04/01 08:30:11;;;;;;;35.77;25.30;;;8.70;99.90;;;;;;5050511;28;20294;-59
2024/04/01 08:32:38;;;;;;;37.30;25.60;;;8.70;99.90;;;;;;5077508;28;20236;-58
2024/04/01 08:35:06;;;;;;;42.30;26.27;;;8.70;99.90;;;;;;5080124;28;20194;-55
2024/04/01 08:37:32;;;;;;;37.30;25.63;;;8.80;99.90;;;;;;5075604;28;20222;-55
2024/04/01 08:39:58;;;;;;;38.37;26.30;;;8.80;99.90;;;;;;5082669;28;20281;-63
2024/04/01 08:42:26;;;;;;;35.13;26.70;;;8.80;99.90;;;;;;5075390;28;20198;-58
2024/04/01 08:44:59;;;;;;;34.47;25.13;;;8.80;99.90;;;;;;5082660;28;20201;-59
2024/04/01 08:47:29;;;;;;;33.23;24.67;;;8.80;99.90;;;;;;5054640;28;20225;-54
2024/04/01 08:50:04;;;;;;;35.97;26.57;;;8.90;99.90;;;;;;5083939;28;20695;-59
2024/04/01 08:52:35;;;;;;;33.03;26.07;;;8.90;99.90;;;;;;5078800;28;20258;-52
2024/04/01 08:55:02;;;;;;;36.67;25.63;;;8.80;99.90;;;;;;5083940;28;20198;-60
2024/04/01 08:57:28;;;;;;;39.13;25.27;;;8.80;99.90;;;;;;5075845;28;20229;-57
2024/04/01 08:59:56;;;;;;;37.60;26.27;;;8.80;99.90;;;;;;5083731;28;20652;-58
2024/04/01 09:02:22;;;;;;;37.47;25.63;;;8.80;99.90;;;;;;5054536;28;20246;-57
2024/04/01 09:04:49;;;;;;;37.40;25.40;;;8.80;99.90;;;;;;5078678;28;20206;-60
2024/04/01 09:07:17;;;;;;;36.60;24.73;;;8.80;99.90;;;;;;5043782;28;20222;-58
2024/04/01 09:09:44;;;;;;;35.67;25.00;;;8.80;99.90;;;;;;5071807;28;20226;-58
2024/04/01 09:12:11;;;;;;;34.77;25.17;;;8.80;99.90;;;;;;5047614;28;20206;-60
2024/04/01 09:14:38;;;;;;;39.43;24.47;;;8.80;99.90;;;;;;5082931;28;20237;-58
2024/04/01 09:17:04;;;;;;;35.67;26.27;;;8.80;99.90;;;;;;5061578;28;20307;-59
2024/04/01 09:19:31;;;;;;;35.93;26.17;;;8.80;99.90;;;;;;5087238;28;20170;-58
2024/04/01 09:22:01;;;;;;;36.97;26.33;;;8.80;99.90;;;;;;5084281;28;20194;-59
2024/04/01 09:24:29;;;;;;;36.17;26.37;;;8.80;99.90;;;;;;5067974;28;20186;-57
2024/04/01 09:26:56;;;;;;;39.13;26.33;;;8.90;99.90;;;;;;5068186;28;20269;-59
2024/04/01 09:29:22;;;;;;;36.43;26.63;;;8.90;99.90;;;;;;5073505;28;20212;-57
2024/04/01 09:31:49;;;;;;;38.17;27.10;;;9.00;99.90;;;;;;5079519;28;20789;-60
2024/04/01 09:34:16;;;;;;;39.17;27.03;;;9.00;99.90;;;;;;5061569;28;20856;-59
2024/04/01 09:36:42;;;;;;;40.20;27.23;;;9.00;99.90;;;;;;5087898;28;20616;-55
2024/04/01 09:39:10;;;;;;;36.77;25.83;;;9.10;99.90;;;;;;5072953;28;20274;-53
2024/04/01 09:41:38;;;;;;;38.47;25.83;;;9.10;99.90;;;;;;5089591;28;20648;-58
2024/04/01 09:44:08;;;;;;;35.00;27.23;;;9.10;99.90;;;;;;5069179;28;20668;-60
2024/04/01 09:46:34;;;;;;;40.20;27.40;;;9.10;99.90;;;;;;5077967;28;20217;-58
2024/04/01 09:49:00;;;;;;;34.80;26.10;;;9.20;99.90;;;;;;5050593;28;20214;-59
2024/04/01 09:51:28;;;;;;;37.43;27.03;;;9.20;99.90;;;;;;5083710;28;20201;-58
2024/04/01 09:53:54;;;;;;;36.13;26.73;;;9.10;99.90;;;;;;5072951;28;20572;-60
2024/04/01 09:56:58;;;;;;;36.90;26.10;;;9.10;99.90;;;;;;5080599;28;20214;-58
2024/04/01 09:59:57;;;;;;;34.87;25.83;;;9.10;99.90;;;;;;5081948;28;20273;-58
2024/04/01 10:03:03;;;;;;;35.53;26.00;;;9.10;99.90;;;;;;5045858;28;20225;-55
2024/04/01 10:06:06;;;;;;;32.80;25.03;;;9.10;99.90;;;;;;5072762;28;20230;-59
2024/04/01 10:09:01;;;;;;;42.03;26.93;;;9.10;99.90;;;;;;5068398;28;20826;-59
2024/04/01 10:11:44;;;;;;;34.10;25.50;;;9.10;99.90;;;;;;5079891;28;20193;-59
2024/04/01 10:14:39;;;;;;;38.85;31.15;;;9.10;99.90;;;;;;5059917;28;20496;-60
2024/04/01 10:17:20;;;;;;;34.53;24.47;;;9.20;99.90;;;;;;5071741;28;20652;-61
2024/04/01 10:20:33;;;;;;;28.07;22.57;;;9.20;99.90;;;;;;5053844;28;20206;-60
2024/04/01 10:23:34;;;;;;;29.17;23.23;;;9.10;99.90;;;;;;5080292;28;20241;-59
2024/04/01 10:26:28;;;;;;;32.57;23.80;;;9.20;99.90;;;;;;5071474;28;20679;-59
2024/04/01 10:29:33;;;;;;;32.13;23.60;;;9.10;99.90;;;;;;5075151;28;20213;-58
2024/04/01 10:32:26;;;;;;;31.63;23.07;;;9.10;99.90;;;;;;5070159;28;20210;-56
2024/04/01 10:35:27;;;;;;;33.17;23.57;;;9.20;99.90;;;;;;5048908;28;20672;-58
2024/04/01 10:38:37;;;;;;;35.30;24.07;;;9.20;99.90;;;;;;5087135;28;20714;-58
2024/04/01 10:41:49;;;;;;;31.80;24.17;;;9.20;99.90;;;;;;5074154;28;20194;-58
2024/04/01 10:44:46;;;;;;;35.17;23.77;;;9.20;99.90;;;;;;5074662;28;20202;-59
2024/04/01 10:47:40;;;;;;;33.03;23.80;;;9.30;99.90;;;;;;5047752;28;20234;-58
2024/04/01 10:50:17;;;;;;;31.37;24.17;;;9.40;99.90;;;;;;5039908;28;20726;-59
2024/04/01 10:52:55;;;;;;;32.50;25.00;;;9.40;99.90;;;;;;5071450;28;20201;-57
2024/04/01 10:55:55;;;;;;;32.17;24.17;;;9.50;99.90;;;;;;5073587;28;20263;-57
2024/04/01 10:58:46;;;;;;;31.57;22.30;;;9.50;99.90;;;;;;5072141;28;21691;-58
2024/04/01 11:01:47;;;;;;;27.47;22.73;;;9.50;99.90;;;;;;5075669;28;20280;-57
2024/04/01 11:04:50;;;;;;;29.00;21.83;;;9.50;99.90;;;;;;5064343;28;20192;-59
2024/04/01 11:07:35;;;;;;;27.70;21.37;;;9.50;99.90;;;;;;5043140;28;20213;-59
2024/04/01 11:10:10;;;;;;;27.97;21.97;;;9.60;99.90;;;;;;5070226;28;20224;-58
2024/04/01 11:12:44;;;;;;;27.57;21.00;;;9.60;99.90;;;;;;5081527;28;20773;-58
2024/04/01 11:15:11;;;;;;;25.50;21.20;;;9.70;99.90;;;;;;5071083;28;20288;-58
2024/04/01 11:17:43;;;;;;;26.83;20.77;;;9.70;99.90;;;;;;5079652;28;20217;-56
2024/04/01 11:20:40;;;;;;;26.80;20.43;;;9.70;99.90;;;;;;5065696;28;20194;-58
2024/04/01 11:23:35;;;;;;;28.97;20.30;;;9.70;99.90;;;;;;5065401;28;20214;-57
2024/04/01 11:26:15;;;;;;;24.97;20.63;;;9.70;99.90;;;;;;5071481;28;20205;-57
2024/04/01 11:28:56;;;;;;;27.67;20.00;;;9.70;99.90;;;;;;5079222;28;20192;-58
2024/04/01 11:31:25;;;;;;;25.00;19.53;;;9.80;99.90;;;;;;5070555;28;20225;-59
2024/04/01 11:33:55;;;;;;;25.70;19.67;;;9.70;99.90;;;;;;5066869;28;20206;-57
2024/04/01 11:36:29;;;;;;;28.70;21.13;;;9.70;99.90;;;;;;5051667;28;20219;-59
2024/04/01 11:39:03;;;;;;;25.83;19.50;;;9.80;99.90;;;;;;5074281;28;20287;-56
2024/04/01 11:41:33;;;;;;;26.03;19.53;;;9.80;99.90;;;;;;5071483;28;20209;-59
2024/04/01 11:44:01;;;;;;;24.87;19.70;;;9.80;99.90;;;;;;5082340;28;20254;-57
2024/04/01 11:46:29;;;;;;;25.50;19.77;;;9.80;99.90;;;;;;5072812;28;20296;-61
2024/04/01 11:48:55;;;;;;;26.87;20.57;;;9.80;99.90;;;;;;5073176;28;20222;-59
2024/04/01 11:51:32;;;;;;;26.70;19.97;;;9.90;99.90;;;;;;5051621;28;20198;-59
2024/04/01 11:53:58;;;;;;;26.57;20.00;;;10.00;99.90;;;;;;5078985;28;20198;-57
2024/04/01 11:56:39;;;;;;;28.10;20.70;;;10.10;99.90;;;;;;5082799;28;20214;-60
2024/04/01 11:59:08;;;;;;;29.57;22.00;;;10.10;99.90;;;;;;5085783;28;20190;-59
2024/04/01 12:01:38;;;;;;;32.13;22.77;;;10.10;99.90;;;;;;5076031;28;20206;-58
2024/04/01 12:04:04;;;;;;;29.37;22.03;;;10.00;99.90;;;;;;5091542;28;20194;-58
2024/04/01 12:06:34;;;;;;;29.30;21.67;;;10.10;99.90;;;;;;5054355;28;20245;-62
2024/04/01 12:09:03;;;;;;;30.33;23.40;;;10.10;99.90;;;;;;5081733;28;20307;-57
2024/04/01 12:11:32;;;;;;;29.90;22.53;;;10.10;99.90;;;;;;5063303;28;20209;-59
2024/04/01 12:13:58;;;;;;;28.67;22.73;;;10.10;99.90;;;;;;5083326;28;20206;-59
2024/04/01 12:16:26;;;;;;;33.53;22.70;;;10.20;99.90;;;;;;5082004;28;20286;-60
2024/04/01 12:18:52;;;;;;;28.50;21.67;;;10.30;99.90;;;;;;5079051;28;20195;-59
2024/04/01 12:21:21;;;;;;;35.57;22.20;;;10.30;99.90;;;;;;5076150;28;20271;-59
2024/04/01 12:23:50;;;;;;;29.90;21.33;;;10.40;99.90;;;;;;5045062;28;20221;-59
2024/04/01 12:26:18;;;;;;;28.93;20.40;;;10.40;99.90;;;;;;5074196;28;20231;-58
2024/04/01 12:28:46;;;;;;;24.13;19.53;;;10.40;99.90;;;;;;5075671;28;20571;-59
2024/04/01 12:31:14;;;;;;;27.50;19.53;;;10.40;99.90;;;;;;5075752;28;20882;-60
2024/04/01 12:33:42;;;;;;;31.77;21.50;;;10.30;99.90;;;;;;5077519;28;20574;-59
2024/04/01 12:36:10;;;;;;;28.30;19.13;;;10.40;99.90;;;;;;5070659;28;20271;-60
2024/04/01 12:38:40;;;;;;;26.93;18.97;;;10.40;99.90;;;;;;5054072;28;20669;-58
2024/04/01 12:41:10;;;;;;;31.23;20.60;;;10.40;99.90;;;;;;5069695;28;20190;-60
2024/04/01 12:43:36;;;;;;;22.10;18.43;;;10.50;99.90;;;;;;5074752;28;20227;-59
2024/04/01 12:46:04;;;;;;;23.33;19.37;;;10.50;99.90;;;;;;5076720;28;20189;-59
2024/04/01 12:48:30;;;;;;;26.40;20.97;;;10.50;99.90;;;;;;5075307;28;20278;-60
2024/04/01 12:50:59;;;;;;;26.53;20.70;;;10.60;99.90;;;;;;5079431;28;20293;-60